createdAt,value
2022-08-17T00:04:19.864Z,20.80
2022-08-17T00:09:22.767Z,20.80
2022-08-17T00:14:25.563Z,20.80
2022-08-17T00:19:28.674Z,20.80
2022-08-17T00:24:31.423Z,20.70
2022-08-17T00:29:34.254Z,20.70
2022-08-17T00:34:38.395Z,20.60
2022-08-17T00:39:42.092Z,20.60
2022-08-17T00:44:44.948Z,20.50
2022-08-17T00:49:48.523Z,20.40
2022-08-17T00:54:52.299Z,20.40
2022-08-17T01:00:02.742Z,20.40
2022-08-17T01:05:06.458Z,20.50
2022-08-17T01:10:58.522Z,20.50
2022-08-17T01:15:49.305Z,20.50
2022-08-17T01:21:12.048Z,20.40
2022-08-17T01:26:35.594Z,20.40
2022-08-17T01:31:54.813Z,20.30
2022-08-17T01:36:58.872Z,20.20
2022-08-17T01:42:20.300Z,20.20
2022-08-17T01:47:36.021Z,20.10
2022-08-17T01:52:39.978Z,20.10
2022-08-17T01:57:45.515Z,20.00
2022-08-17T02:02:49.265Z,20.00
2022-08-17T02:08:00.603Z,20.10
2022-08-17T02:13:03.673Z,20.00
2022-08-17T02:18:07.764Z,19.80
2022-08-17T02:23:10.667Z,19.70
2022-08-17T02:28:13.673Z,19.70
2022-08-17T02:33:16.941Z,19.80
2022-08-17T02:38:23.440Z,19.70
2022-08-17T02:43:27.487Z,19.70
2022-08-17T02:48:32.037Z,19.60
2022-08-17T02:53:35.739Z,19.60
2022-08-17T02:58:40.235Z,19.60
2022-08-17T03:03:43.828Z,19.60
2022-08-17T03:08:46.983Z,19.60
2022-08-17T03:13:50.981Z,19.50
2022-08-17T03:18:55.569Z,19.40
2022-08-17T03:23:58.737Z,19.40
2022-08-17T03:29:02.048Z,19.30
2022-08-17T03:34:04.849Z,19.30
2022-08-17T03:39:08.026Z,19.30
2022-08-17T03:44:11.747Z,19.20
2022-08-17T03:49:33.143Z,19.30
2022-08-17T03:54:54.710Z,19.30
2022-08-17T03:59:58.195Z,19.20
2022-08-17T04:05:01.327Z,19.40
2022-08-17T04:10:04.925Z,19.20
2022-08-17T04:15:09.026Z,19.20
2022-08-17T04:20:12.734Z,19.30
2022-08-17T04:25:15.565Z,19.40
2022-08-17T04:30:19.152Z,19.40
2022-08-17T04:35:22.377Z,19.20
2022-08-17T04:40:42.926Z,19.50
2022-08-17T04:45:55.632Z,19.60
2022-08-17T04:51:00.089Z,19.90
2022-08-17T04:56:02.900Z,20.00
2022-08-17T05:01:07.465Z,20.10
2022-08-17T05:06:10.344Z,20.20
2022-08-17T05:11:13.260Z,20.40
2022-08-17T05:16:16.540Z,20.60
2022-08-17T05:21:20.153Z,20.80
2022-08-17T05:36:38.025Z,21.80
2022-08-17T05:41:47.554Z,22.30
2022-08-17T05:46:50.699Z,22.10
2022-08-17T05:51:54.052Z,22.30
2022-08-17T05:56:56.824Z,22.40
2022-08-17T06:01:59.870Z,22.90
2022-08-17T06:07:02.629Z,23.00
2022-08-17T06:12:06.580Z,23.30
2022-08-17T06:17:17.038Z,23.20
2022-08-17T06:22:20.458Z,23.20
2022-08-17T06:27:23.714Z,23.50
2022-08-17T06:32:26.508Z,23.70
2022-08-17T06:37:29.328Z,23.80
2022-08-17T06:42:59.871Z,24.00
2022-08-17T06:47:56.228Z,23.70
2022-08-17T06:52:59.686Z,23.50
2022-08-17T06:58:05.747Z,23.70
2022-08-17T07:03:21.209Z,23.30
2022-08-17T07:08:29.141Z,23.80
2022-08-17T07:13:33.135Z,24.10
2022-08-17T07:23:41.003Z,24.70
2022-08-17T07:33:48.002Z,25.90
2022-08-17T07:38:51.256Z,25.80
2022-08-17T07:43:54.602Z,26.00
2022-08-17T07:48:57.815Z,26.20
2022-08-17T07:54:13.583Z,26.20
2022-08-17T07:59:17.072Z,26.50
2022-08-17T08:04:25.836Z,26.40
2022-08-17T08:09:42.922Z,26.60
2022-08-17T08:14:45.710Z,26.50
2022-08-17T08:19:48.449Z,26.60
2022-08-17T08:24:51.445Z,27.00
2022-08-17T08:29:55.401Z,27.10
2022-08-17T08:35:02.826Z,27.20
2022-08-17T08:40:08.331Z,27.30
2022-08-17T08:45:11.183Z,27.30
2022-08-17T08:50:37.620Z,27.70
2022-08-17T08:55:37.266Z,27.90
2022-08-17T09:00:40.941Z,27.80
2022-08-17T09:05:43.733Z,27.90
2022-08-17T09:10:46.960Z,28.00
2022-08-17T09:15:49.712Z,28.30
2022-08-17T09:20:52.499Z,28.30
2022-08-17T09:25:56.296Z,28.40
2022-08-17T09:31:03.050Z,28.50
2022-08-17T09:36:06.357Z,28.50
2022-08-17T09:41:09.534Z,28.70
2022-08-17T09:46:12.327Z,29.10
2022-08-17T09:51:15.638Z,29.20
2022-08-17T09:56:18.381Z,29.20
2022-08-17T10:01:21.378Z,29.30
2022-08-17T10:37:46.588Z,30.10
2022-08-17T10:42:50.195Z,29.90
2022-08-17T10:47:56.122Z,30.00
2022-08-17T10:53:00.501Z,30.10
2022-08-17T10:58:03.848Z,30.10
2022-08-17T12:15:08.967Z,31.50
2022-08-17T12:20:08.114Z,30.90
2022-08-17T12:25:11.130Z,31.50
2022-08-17T12:30:13.971Z,31.80
2022-08-17T12:45:25.307Z,32.10
2022-08-17T12:50:30.250Z,31.50
2022-08-17T12:55:34.058Z,31.50
2022-08-17T13:00:38.024Z,31.70
2022-08-17T13:05:40.878Z,32.00
2022-08-17T13:10:43.912Z,32.50
2022-08-17T13:15:47.151Z,33.30
2022-08-17T13:20:51.740Z,32.20
2022-08-17T13:25:54.516Z,32.00
2022-08-17T13:30:57.442Z,32.20
2022-08-17T13:36:00.188Z,32.30
2022-08-17T13:41:05.668Z,32.20
2022-08-17T13:46:08.426Z,32.30
2022-08-17T13:51:11.456Z,32.30
2022-08-17T13:56:38.007Z,32.50
2022-08-17T14:01:37.256Z,32.70
2022-08-17T14:57:34.283Z,33.20
2022-08-17T15:02:37.516Z,33.10
2022-08-17T15:07:40.482Z,32.80
2022-08-17T15:12:43.263Z,32.70
2022-08-17T15:17:47.707Z,32.70
2022-08-17T15:22:50.689Z,34.00
2022-08-17T15:27:54.475Z,32.60
2022-08-17T15:32:57.241Z,32.30
2022-08-17T15:38:04.643Z,32.20
2022-08-17T15:43:11.648Z,32.00
2022-08-17T15:48:15.784Z,32.40
2022-08-17T15:53:18.886Z,32.80
2022-08-17T15:58:21.999Z,33.00
2022-08-17T16:04:01.878Z,32.90
2022-08-17T16:08:59.481Z,32.00
2022-08-17T16:14:02.384Z,31.90
2022-08-17T16:19:05.179Z,31.50
2022-08-17T16:24:13.151Z,31.30
2022-08-17T16:29:17.903Z,31.10
2022-08-17T16:34:21.218Z,30.80
2022-08-17T16:39:24.508Z,30.80
2022-08-17T16:44:29.103Z,30.70
2022-08-17T16:49:36.929Z,31.80
2022-08-17T16:54:43.826Z,30.80
2022-08-17T16:59:50.284Z,30.60
2022-08-17T17:04:53.082Z,30.40
2022-08-17T17:09:56.187Z,30.30
2022-08-17T17:15:01.417Z,30.00
2022-08-17T17:20:04.583Z,29.90
2022-08-17T17:43:40.892Z,29.10
2022-08-17T17:49:02.908Z,29.10
2022-08-17T17:54:12.778Z,29.00
2022-08-17T17:59:39.337Z,28.90
2022-08-17T18:05:05.033Z,28.80
2022-08-17T18:10:30.277Z,28.60
2022-08-17T18:15:54.685Z,28.30
2022-08-17T18:21:19.465Z,28.10
2022-08-17T18:26:44.801Z,28.00
2022-08-17T18:32:08.360Z,27.80
2022-08-17T18:37:32.955Z,27.70
2022-08-17T18:42:56.021Z,27.60
2022-08-17T18:48:19.125Z,27.50
2022-08-17T18:53:42.196Z,27.30
2022-08-17T18:59:05.404Z,27.30
2022-08-17T19:04:28.635Z,27.10
2022-08-17T19:10:03.071Z,26.90
2022-08-17T19:15:26.160Z,26.80
2022-08-17T19:20:49.229Z,26.70
2022-08-17T19:26:50.335Z,26.60
2022-08-17T19:31:56.231Z,26.40
2022-08-17T19:37:20.944Z,26.20
2022-08-17T19:42:47.503Z,26.10
2022-08-17T19:51:59.954Z,26.20
2022-08-17T19:57:02.893Z,26.00
2022-08-17T20:02:05.817Z,26.10
2022-08-17T20:07:08.710Z,26.10
2022-08-17T20:12:11.425Z,26.00
2022-08-17T20:17:14.245Z,26.00
2022-08-17T20:22:16.987Z,26.00
2022-08-17T20:27:21.940Z,25.80
2022-08-17T20:32:44.121Z,25.80
2022-08-17T20:37:46.898Z,25.70
2022-08-17T20:42:49.932Z,25.80
2022-08-17T20:48:30.491Z,25.70
2022-08-17T20:53:21.703Z,25.60
2022-08-17T20:58:24.403Z,25.60
2022-08-17T21:03:51.269Z,25.50
2022-08-17T21:08:54.457Z,25.40
2022-08-17T21:13:57.476Z,25.30
2022-08-17T21:19:00.166Z,25.30
2022-08-17T21:24:02.877Z,25.30
2022-08-17T21:29:29.847Z,25.20
2022-08-17T21:34:28.342Z,25.20
2022-08-17T21:39:33.206Z,25.10
2022-08-17T21:44:37.030Z,25.20
2022-08-17T21:49:39.782Z,25.10
2022-08-17T21:54:44.021Z,25.10
2022-08-17T21:59:46.745Z,25.10
2022-08-17T22:04:49.821Z,25.10
2022-08-17T22:09:52.517Z,25.10
2022-08-17T22:14:55.346Z,25.10
2022-08-17T22:19:58.167Z,25.00
2022-08-17T22:25:01.522Z,25.00
2022-08-17T22:30:05.171Z,24.40
2022-08-17T22:35:10.944Z,23.00
2022-08-17T22:40:13.670Z,21.50
2022-08-17T22:45:16.491Z,20.20
2022-08-17T22:50:19.180Z,20.30
2022-08-17T22:55:39.575Z,20.20
2022-08-17T23:00:42.255Z,20.20
2022-08-17T23:05:44.973Z,20.10
2022-08-17T23:10:47.842Z,20.10
2022-08-17T23:15:50.659Z,19.40
2022-08-17T23:20:53.395Z,19.00
2022-08-17T23:25:56.216Z,18.70
2022-08-17T23:30:58.922Z,18.60
2022-08-17T23:36:01.772Z,18.60
2022-08-17T23:41:04.930Z,18.80
2022-08-17T23:46:08.006Z,19.00
2022-08-17T23:51:10.846Z,19.00
2022-08-17T23:56:13.566Z,19.00
